Terminal Aerodrome Forecast
Issued by NWS Bismarck, ND

Home | Current Version | Previous Version | Graphics & Text | Print | Product List | Glossary On
Versions: 1 2 3 4 5 6 7 8 9 10 11 12 13 14 15 16 17 18 19 20 21 22 23
915
FTUS43 KBIS 231739
TAFBIS
TAF
KBIS 231739Z 2318/2418 10010G16KT P6SM -SHRA VCTS OVC015CB
     FM232100 11011G17KT P6SM OVC008
     FM240600 11011G17KT P6SM BKN035 WS020/15040KT
     FM240900 12010G17KT P6SM SCT130 WS020/16040KT
     FM241300 14009KT P6SM BKN070
     FM241500 17010G17KT P6SM SCT035=

USA.gov is the U.S. government's official web portal to all federal, state and local government web resources and services.